createdAt,value
2023-01-27T00:02:04.771Z,1.61
2023-01-27T00:04:09.559Z,1.58
2023-01-27T00:06:14.789Z,1.46
2023-01-27T00:08:22.364Z,1.48
2023-01-27T00:10:28.275Z,1.40
2023-01-27T00:12:45.503Z,1.45
2023-01-27T00:14:50.350Z,1.48
2023-01-27T00:16:55.441Z,1.41
2023-01-27T00:19:00.032Z,1.32
2023-01-27T00:21:17.303Z,1.34
2023-01-27T00:23:40.821Z,1.35
2023-01-27T00:25:50.339Z,1.34
2023-01-27T00:27:55.415Z,1.40
2023-01-27T00:30:00.040Z,1.45
2023-01-27T00:32:17.502Z,1.38
2023-01-27T00:34:22.353Z,1.45
2023-01-27T00:36:27.253Z,1.51
2023-01-27T00:38:40.830Z,1.52
2023-01-27T00:41:08.813Z,1.44
2023-01-27T00:43:13.621Z,1.45
2023-01-27T00:45:31.084Z,1.44
2023-01-27T00:47:36.055Z,1.38
2023-01-27T00:49:40.902Z,1.41
2023-01-27T00:51:45.890Z,1.23
2023-01-27T00:53:53.422Z,1.30
2023-01-27T00:55:58.340Z,1.37
2023-01-27T00:58:03.324Z,1.43
2023-01-27T01:00:10.135Z,1.48
2023-01-27T01:02:15.068Z,1.33
2023-01-27T01:04:19.877Z,1.39
2023-01-27T01:06:25.032Z,1.32
2023-01-27T01:08:29.651Z,1.27
2023-01-27T01:10:37.286Z,1.21
2023-01-27T01:12:42.103Z,1.26
2023-01-27T01:14:46.954Z,1.25
2023-01-27T01:16:51.817Z,1.37
2023-01-27T01:18:57.122Z,1.45
2023-01-27T01:21:02.051Z,1.53
2023-01-27T01:23:07.185Z,1.48
2023-01-27T01:25:12.955Z,1.38
2023-01-27T01:27:20.396Z,1.38
2023-01-27T01:29:25.212Z,1.32
2023-01-27T01:31:31.157Z,1.36
2023-01-27T01:33:36.099Z,1.47
2023-01-27T01:35:42.068Z,1.52
2023-01-27T01:37:47.315Z,1.48
2023-01-27T01:39:52.400Z,1.50
2023-01-27T01:41:57.245Z,1.49
2023-01-27T01:44:27.542Z,1.52
2023-01-27T01:46:32.377Z,1.40
2023-01-27T01:48:41.061Z,1.46
2023-01-27T01:50:51.199Z,1.37
2023-01-27T01:52:57.480Z,1.39
2023-01-27T01:55:02.337Z,1.40
2023-01-27T01:57:12.189Z,1.47
2023-01-27T01:59:20.590Z,1.52
2023-01-27T02:01:28.033Z,1.42
2023-01-27T02:03:33.515Z,1.31
2023-01-27T02:05:43.007Z,1.32
2023-01-27T02:07:56.988Z,1.24
2023-01-27T02:10:04.752Z,1.18
2023-01-27T02:12:14.137Z,1.21
2023-01-27T02:14:20.483Z,1.28
2023-01-27T02:16:28.020Z,1.25
2023-01-27T02:18:33.140Z,1.34
2023-01-27T02:20:42.436Z,1.39
2023-01-27T02:22:58.530Z,1.34
2023-01-27T02:25:11.727Z,1.32
2023-01-27T02:27:19.361Z,1.31
2023-01-27T02:29:24.740Z,1.35
2023-01-27T02:31:30.438Z,1.26
2023-01-27T02:33:35.422Z,1.16
2023-01-27T02:35:45.671Z,1.22
2023-01-27T02:37:53.075Z,1.21
2023-01-27T02:40:00.633Z,1.29
2023-01-27T02:42:08.645Z,1.28
2023-01-27T02:44:16.737Z,1.34
2023-01-27T02:46:22.180Z,1.31
2023-01-27T02:48:26.999Z,1.24
2023-01-27T02:50:32.206Z,1.29
2023-01-27T02:52:36.803Z,1.30
2023-01-27T02:54:41.778Z,1.24
2023-01-27T02:56:46.614Z,1.26
2023-01-27T02:58:53.958Z,1.22
2023-01-27T03:01:08.107Z,1.28
2023-01-27T03:03:13.259Z,1.23
2023-01-27T03:05:19.019Z,1.20
2023-01-27T03:07:23.896Z,1.20
2023-01-27T03:09:28.834Z,1.24
2023-01-27T03:11:46.180Z,1.12
2023-01-27T03:13:51.180Z,1.09
2023-01-27T03:16:11.564Z,1.02
2023-01-27T03:18:18.321Z,0.94
2023-01-27T03:20:23.349Z,1.00
2023-01-27T03:22:28.681Z,1.06
2023-01-27T03:24:33.646Z,1.18
2023-01-27T03:26:43.173Z,1.12
2023-01-27T03:29:10.799Z,1.15
2023-01-27T03:31:24.551Z,1.00
2023-01-27T03:33:43.166Z,1.12
2023-01-27T03:36:26.183Z,1.25
2023-01-27T03:38:44.390Z,1.35
2023-01-27T03:41:01.885Z,1.35
2023-01-27T03:43:19.299Z,1.36
2023-01-27T03:45:36.621Z,1.36
2023-01-27T03:47:41.850Z,1.37
2023-01-27T03:49:49.201Z,1.34
2023-01-27T03:51:54.141Z,1.40
2023-01-27T03:54:01.074Z,1.33
2023-01-27T03:56:06.660Z,1.27
2023-01-27T03:58:21.252Z,1.16
2023-01-27T04:00:26.749Z,1.24
2023-01-27T04:02:43.990Z,1.28
2023-01-27T04:05:03.978Z,1.12
2023-01-27T04:07:09.829Z,1.19
2023-01-27T04:09:16.325Z,1.20
2023-01-27T04:11:33.643Z,1.07
2023-01-27T04:13:38.884Z,0.94
2023-01-27T04:15:43.465Z,1.07
2023-01-27T04:17:48.422Z,0.90
2023-01-27T04:19:55.844Z,0.88
2023-01-27T04:22:01.781Z,0.98
2023-01-27T04:24:08.801Z,1.00
2023-01-27T04:26:13.683Z,1.10
2023-01-27T04:28:29.151Z,1.12
2023-01-27T04:30:42.328Z,1.19
2023-01-27T04:32:47.134Z,1.27
2023-01-27T04:34:52.135Z,1.24
2023-01-27T04:36:59.926Z,1.09
2023-01-27T04:39:04.775Z,1.03
2023-01-27T04:41:11.852Z,1.03
2023-01-27T04:43:16.497Z,1.02
2023-01-27T04:45:25.494Z,0.99
2023-01-27T04:47:30.476Z,0.95
2023-01-27T04:49:35.307Z,0.96
2023-01-27T04:51:40.298Z,0.85
2023-01-27T04:53:47.732Z,0.81
2023-01-27T04:55:53.078Z,0.75
2023-01-27T04:57:57.882Z,0.85
2023-01-27T05:00:02.789Z,0.82
2023-01-27T05:02:08.191Z,0.88
2023-01-27T05:04:13.057Z,0.95
2023-01-27T05:06:18.661Z,1.00
2023-01-27T05:08:23.475Z,0.83
2023-01-27T05:10:30.826Z,0.90
2023-01-27T05:12:35.964Z,1.02
2023-01-27T05:14:40.757Z,1.05
2023-01-27T05:16:45.787Z,1.03
2023-01-27T05:18:51.981Z,0.95
2023-01-27T05:20:56.832Z,0.96
2023-01-27T05:23:13.827Z,0.98
2023-01-27T05:25:18.926Z,0.70
2023-01-27T05:27:26.277Z,0.52
2023-01-27T05:29:31.165Z,0.50
2023-01-27T05:31:35.974Z,0.53
2023-01-27T05:33:42.323Z,0.50
2023-01-27T05:35:47.144Z,0.59
2023-01-27T05:37:51.984Z,0.56
2023-01-27T05:39:56.773Z,0.51
2023-01-27T05:42:01.625Z,0.52
2023-01-27T05:44:09.219Z,0.60
2023-01-27T05:46:15.840Z,0.53
2023-01-27T05:48:20.869Z,0.54
2023-01-27T05:50:25.479Z,0.43
2023-01-27T05:52:30.312Z,0.49
2023-01-27T05:54:35.128Z,0.37
2023-01-27T05:56:40.854Z,0.31
2023-01-27T05:58:46.357Z,0.37
2023-01-27T06:00:54.144Z,0.42
2023-01-27T06:02:59.013Z,0.52
2023-01-27T06:05:03.795Z,0.45
2023-01-27T06:07:08.586Z,0.41
2023-01-27T06:09:13.612Z,0.33
2023-01-27T06:11:19.989Z,0.37
2023-01-27T06:13:26.011Z,0.34
2023-01-27T06:15:30.857Z,0.27
2023-01-27T06:17:38.214Z,0.26
2023-01-27T06:19:43.020Z,0.17
2023-01-27T06:21:47.827Z,0.22
2023-01-27T06:23:53.648Z,0.29
2023-01-27T06:25:59.450Z,0.32
2023-01-27T06:28:04.499Z,0.33
2023-01-27T06:30:11.071Z,0.38
2023-01-27T06:32:15.839Z,0.45
2023-01-27T06:34:23.446Z,0.31
2023-01-27T06:36:28.268Z,0.34
2023-01-27T06:38:33.122Z,0.29
2023-01-27T06:40:38.639Z,0.32
2023-01-27T06:42:46.108Z,0.34
2023-01-27T06:44:50.982Z,0.26
2023-01-27T06:46:55.779Z,0.29
2023-01-27T06:49:00.543Z,0.21
2023-01-27T06:51:08.378Z,0.31
2023-01-27T06:53:13.571Z,0.37
2023-01-27T06:55:19.259Z,0.18
2023-01-27T06:57:24.091Z,0.23
2023-01-27T06:59:29.093Z,0.25
2023-01-27T07:01:33.976Z,0.35
2023-01-27T07:03:38.701Z,0.41
2023-01-27T07:05:44.977Z,0.43
2023-01-27T07:07:52.360Z,0.50
2023-01-27T07:09:57.195Z,0.54
2023-01-27T07:12:01.969Z,0.55
2023-01-27T07:14:07.970Z,0.56
2023-01-27T07:16:14.533Z,0.64
2023-01-27T07:18:19.889Z,0.73
2023-01-27T07:20:28.223Z,0.71
2023-01-27T07:22:33.131Z,0.78
2023-01-27T07:24:40.503Z,0.85
2023-01-27T07:26:47.551Z,0.95
2023-01-27T07:28:52.532Z,0.98
2023-01-27T07:30:57.428Z,1.09
2023-01-27T07:33:06.634Z,1.13
2023-01-27T07:35:11.798Z,1.11
2023-01-27T07:37:17.073Z,1.06
2023-01-27T07:39:22.449Z,1.00
2023-01-27T07:41:29.790Z,1.05
2023-01-27T07:43:34.787Z,1.07
2023-01-27T07:45:44.302Z,1.08
2023-01-27T07:47:49.253Z,1.08
2023-01-27T07:49:54.039Z,0.95
2023-01-27T07:51:58.919Z,0.88
2023-01-27T07:54:03.714Z,0.84
2023-01-27T07:56:12.081Z,1.00
2023-01-27T07:58:19.630Z,1.10
2023-01-27T08:00:25.115Z,1.10
2023-01-27T08:02:31.727Z,1.16
2023-01-27T08:04:47.206Z,1.17
2023-01-27T08:06:57.131Z,1.24
2023-01-27T08:09:02.264Z,1.22
2023-01-27T08:11:10.484Z,1.17
2023-01-27T08:13:15.373Z,1.17
2023-01-27T08:15:22.790Z,1.26
2023-01-27T08:17:27.694Z,1.27
2023-01-27T08:19:32.489Z,1.44
2023-01-27T08:21:37.295Z,1.59
2023-01-27T08:23:42.091Z,1.64
2023-01-27T08:25:52.219Z,1.67
2023-01-27T08:27:58.939Z,1.69
2023-01-27T08:30:03.779Z,1.82
2023-01-27T08:32:14.162Z,1.81
2023-01-27T08:34:20.023Z,1.92
2023-01-27T08:36:26.055Z,1.83
2023-01-27T08:38:30.908Z,1.84
2023-01-27T08:40:35.997Z,1.69
2023-01-27T08:42:40.843Z,1.62
2023-01-27T08:44:46.148Z,1.73
2023-01-27T08:46:51.110Z,1.70
2023-01-27T08:48:58.530Z,1.55
2023-01-27T08:51:04.834Z,1.45
2023-01-27T08:53:09.684Z,1.33
2023-01-27T08:55:15.575Z,1.47
2023-01-27T08:57:20.345Z,1.53
2023-01-27T08:59:25.274Z,1.63
2023-01-27T09:01:30.393Z,1.68
2023-01-27T09:03:36.057Z,1.63
2023-01-27T09:05:44.219Z,1.66
2023-01-27T09:07:49.388Z,1.67
2023-01-27T09:10:07.722Z,1.73
2023-01-27T09:12:18.382Z,1.75
2023-01-27T09:14:23.153Z,1.79
2023-01-27T09:16:28.126Z,1.77
2023-01-27T09:18:32.998Z,1.84
2023-01-27T09:20:37.858Z,1.96
2023-01-27T09:22:45.644Z,1.98
2023-01-27T09:24:50.441Z,1.96
2023-01-27T09:26:55.244Z,2.11
2023-01-27T09:29:00.331Z,2.16
2023-01-27T09:31:05.241Z,2.12
2023-01-27T09:33:10.347Z,2.12
2023-01-27T09:35:15.486Z,2.17
2023-01-27T09:37:21.484Z,2.10
2023-01-27T09:39:30.292Z,2.08
2023-01-27T09:41:59.949Z,2.30
2023-01-27T09:44:31.199Z,2.47
2023-01-27T09:46:59.838Z,2.44
2023-01-27T09:49:36.355Z,2.42
2023-01-27T09:51:52.956Z,2.40
2023-01-27T09:54:14.447Z,2.11
2023-01-27T09:56:31.782Z,2.08
2023-01-27T09:58:51.007Z,2.05
2023-01-27T10:01:07.989Z,1.74
2023-01-27T10:03:31.698Z,1.71
2023-01-27T10:06:01.728Z,1.76
2023-01-27T10:08:26.205Z,1.63
2023-01-27T10:10:46.850Z,1.79
2023-01-27T10:13:08.878Z,1.81
2023-01-27T10:15:25.091Z,1.74
2023-01-27T10:17:43.550Z,1.58
2023-01-27T10:19:58.351Z,1.66
2023-01-27T10:22:13.368Z,1.40
2023-01-27T10:24:31.078Z,1.46
2023-01-27T10:26:42.306Z,1.68
2023-01-27T10:28:54.070Z,1.77
2023-01-27T10:31:02.998Z,1.68
2023-01-27T10:33:19.202Z,1.69
2023-01-27T10:35:31.644Z,1.66
2023-01-27T10:37:45.047Z,1.53
2023-01-27T10:40:02.293Z,1.65
2023-01-27T10:42:19.236Z,1.72
2023-01-27T10:44:41.499Z,1.79
2023-01-27T10:46:56.947Z,1.87
2023-01-27T10:49:07.366Z,1.85
2023-01-27T10:51:17.128Z,1.74
2023-01-27T10:53:28.526Z,1.80
2023-01-27T10:55:43.219Z,1.92
2023-01-27T10:57:55.402Z,2.11
2023-01-27T11:00:37.919Z,2.01
2023-01-27T11:02:42.205Z,2.09
2023-01-27T11:04:50.450Z,2.06
2023-01-27T11:06:56.866Z,2.11
2023-01-27T11:09:11.330Z,2.04
2023-01-27T11:11:31.977Z,2.02
2023-01-27T11:13:38.023Z,2.02
2023-01-27T11:15:45.422Z,2.04
2023-01-27T11:17:54.764Z,2.14
2023-01-27T11:20:07.778Z,2.13
2023-01-27T11:22:25.619Z,2.26
2023-01-27T11:24:39.141Z,2.36
2023-01-27T11:26:47.652Z,2.36
2023-01-27T11:28:58.317Z,2.30
2023-01-27T11:31:18.162Z,2.25
2023-01-27T11:33:31.044Z,2.29
2023-01-27T11:35:35.878Z,2.38
2023-01-27T11:37:43.232Z,2.22
2023-01-27T11:39:48.226Z,2.35
2023-01-27T11:41:56.535Z,2.48
2023-01-27T11:44:02.050Z,2.28
2023-01-27T11:46:14.600Z,2.37
2023-01-27T11:48:23.357Z,2.28
2023-01-27T11:50:33.553Z,2.35
2023-01-27T11:52:38.352Z,2.34
2023-01-27T11:54:49.644Z,2.28
2023-01-27T11:56:54.600Z,2.30
2023-01-27T11:59:04.147Z,2.26
2023-01-27T12:01:17.934Z,2.26
2023-01-27T12:03:27.559Z,2.22
2023-01-27T12:05:36.415Z,2.22
2023-01-27T12:07:49.126Z,2.18
2023-01-27T12:09:54.238Z,2.09
2023-01-27T12:12:13.325Z,2.15
2023-01-27T12:14:18.143Z,2.21
2023-01-27T12:16:30.179Z,2.19
2023-01-27T12:18:37.599Z,2.23
2023-01-27T12:20:44.967Z,2.30
2023-01-27T12:22:52.711Z,2.37
2023-01-27T12:25:00.996Z,2.44
2023-01-27T12:27:06.935Z,2.38
2023-01-27T12:29:19.705Z,2.43
2023-01-27T12:31:31.149Z,2.39
2023-01-27T12:33:37.176Z,2.36
2023-01-27T12:35:43.330Z,2.43
2023-01-27T12:37:49.257Z,2.33
2023-01-27T12:40:00.635Z,2.43
2023-01-27T12:42:05.631Z,2.36
2023-01-27T12:44:18.356Z,2.38
2023-01-27T12:46:30.980Z,2.26
2023-01-27T12:48:36.607Z,2.25
2023-01-27T12:50:43.379Z,2.19
2023-01-27T12:52:55.651Z,2.12
2023-01-27T12:55:00.597Z,2.10
2023-01-27T12:57:07.022Z,2.11
2023-01-27T12:59:16.724Z,2.13
2023-01-27T13:01:30.713Z,2.17
2023-01-27T13:03:42.314Z,2.22
2023-01-27T13:05:47.207Z,2.14
2023-01-27T13:07:56.335Z,2.10
2023-01-27T13:10:03.974Z,1.99
2023-01-27T13:12:22.473Z,1.93
2023-01-27T13:14:31.992Z,1.92
2023-01-27T13:16:41.063Z,2.04
2023-01-27T13:18:55.198Z,2.11
2023-01-27T13:21:16.106Z,2.13
2023-01-27T13:23:24.004Z,2.15
2023-01-27T13:25:35.304Z,2.14
2023-01-27T13:27:43.643Z,2.11
2023-01-27T13:29:57.521Z,2.16
2023-01-27T13:32:08.669Z,2.09
2023-01-27T13:34:25.140Z,2.15
2023-01-27T13:36:38.308Z,2.20
2023-01-27T13:38:51.959Z,2.08
2023-01-27T13:40:56.956Z,2.12
2023-01-27T13:43:11.666Z,2.21
2023-01-27T13:45:21.349Z,2.27
2023-01-27T13:47:32.295Z,2.38
2023-01-27T13:49:42.467Z,2.42
2023-01-27T13:51:47.508Z,2.35
2023-01-27T13:54:00.187Z,2.35
2023-01-27T13:56:18.398Z,2.19
2023-01-27T13:58:32.841Z,2.20
2023-01-27T14:00:46.070Z,2.15
2023-01-27T14:03:21.609Z,2.24
2023-01-27T14:05:42.621Z,2.15
2023-01-27T14:07:56.553Z,2.11
2023-01-27T14:10:16.630Z,2.17
2023-01-27T14:12:34.630Z,2.27
2023-01-27T14:14:58.560Z,2.28
2023-01-27T14:17:26.679Z,2.21
2023-01-27T14:19:49.695Z,2.22
2023-01-27T14:22:01.898Z,2.26
2023-01-27T14:24:21.214Z,2.29
2023-01-27T14:26:42.047Z,2.26
2023-01-27T14:29:02.761Z,2.29
2023-01-27T14:31:15.712Z,2.29
2023-01-27T14:33:27.628Z,2.26
2023-01-27T14:35:44.932Z,2.32
2023-01-27T14:37:58.863Z,2.23
2023-01-27T14:40:17.957Z,2.36
2023-01-27T14:42:32.736Z,2.25
2023-01-27T14:44:55.607Z,2.28
2023-01-27T14:47:14.243Z,2.22
2023-01-27T14:49:29.764Z,2.20
2023-01-27T14:51:42.548Z,2.21
2023-01-27T14:53:58.049Z,2.14
2023-01-27T14:56:13.954Z,2.13
2023-01-27T14:58:26.272Z,1.97
2023-01-27T15:00:42.930Z,1.90
2023-01-27T15:02:50.999Z,1.95
2023-01-27T15:05:03.638Z,1.87
2023-01-27T15:07:21.518Z,1.97
2023-01-27T15:09:54.020Z,2.04
2023-01-27T15:12:21.968Z,2.09
2023-01-27T15:14:50.276Z,2.16
2023-01-27T15:17:14.635Z,2.18
2023-01-27T15:19:50.988Z,2.10
2023-01-27T15:22:27.266Z,1.94
2023-01-27T15:24:47.150Z,1.87
2023-01-27T15:26:52.625Z,1.79
2023-01-27T15:28:58.534Z,1.78
2023-01-27T15:31:26.237Z,1.79
2023-01-27T15:33:56.680Z,1.77
2023-01-27T15:36:19.634Z,1.83
2023-01-27T15:38:35.901Z,1.69
2023-01-27T15:40:59.960Z,1.74
2023-01-27T15:43:07.550Z,1.64
2023-01-27T15:45:29.391Z,1.62
2023-01-27T15:47:35.689Z,1.63
2023-01-27T15:49:45.817Z,1.65
2023-01-27T15:51:53.243Z,1.69
2023-01-27T15:54:02.519Z,1.72
2023-01-27T15:56:08.948Z,1.75
2023-01-27T15:58:27.680Z,1.74
2023-01-27T16:00:38.070Z,1.70
2023-01-27T16:02:49.682Z,1.72
2023-01-27T16:04:57.908Z,1.69
2023-01-27T16:07:05.507Z,1.77
2023-01-27T16:09:23.823Z,1.77
2023-01-27T16:11:43.202Z,1.81
2023-01-27T16:13:51.458Z,1.84
2023-01-27T16:16:40.851Z,1.81
2023-01-27T16:18:48.729Z,1.84
2023-01-27T16:21:01.161Z,1.77
2023-01-27T16:23:14.707Z,1.80
2023-01-27T16:25:31.284Z,1.83
2023-01-27T16:27:46.857Z,1.79
2023-01-27T16:29:58.385Z,1.74
2023-01-27T16:32:07.548Z,1.72
2023-01-27T16:34:26.023Z,1.70
2023-01-27T16:36:32.915Z,1.68
2023-01-27T16:38:40.796Z,1.60
2023-01-27T16:40:52.810Z,1.69
2023-01-27T16:43:02.196Z,1.71
2023-01-27T16:45:19.919Z,1.72
2023-01-27T16:47:29.144Z,1.68
2023-01-27T16:49:38.468Z,1.65
2023-01-27T16:51:43.350Z,1.67
2023-01-27T16:53:50.902Z,1.61
2023-01-27T16:56:06.548Z,1.50
2023-01-27T16:58:20.270Z,1.38
2023-01-27T17:00:28.440Z,1.46
2023-01-27T17:02:34.816Z,1.53
2023-01-27T17:04:39.952Z,1.45
2023-01-27T17:06:45.836Z,1.39
2023-01-27T17:08:52.046Z,1.45
2023-01-27T17:10:59.558Z,1.45
2023-01-27T17:13:06.992Z,1.40
2023-01-27T17:15:21.789Z,1.43
2023-01-27T17:17:29.091Z,1.39
2023-01-27T17:19:36.314Z,1.45
2023-01-27T17:21:43.742Z,1.50
2023-01-27T17:23:48.611Z,1.49
2023-01-27T17:25:54.063Z,1.58
2023-01-27T17:27:59.741Z,1.64
2023-01-27T17:30:11.018Z,1.68
2023-01-27T17:32:23.319Z,1.64
2023-01-27T17:34:28.330Z,1.70
2023-01-27T17:36:33.183Z,1.61
2023-01-27T17:38:49.197Z,1.56
2023-01-27T17:40:57.330Z,1.51
2023-01-27T17:43:02.120Z,1.52
2023-01-27T17:45:30.423Z,1.62
2023-01-27T17:47:36.011Z,1.62
2023-01-27T17:49:42.366Z,1.62
2023-01-27T17:51:51.383Z,1.58
2023-01-27T17:53:57.205Z,1.57
2023-01-27T17:56:02.238Z,1.51
2023-01-27T17:58:07.780Z,1.51
2023-01-27T18:00:23.649Z,1.56
2023-01-27T18:02:34.400Z,1.53
2023-01-27T18:04:43.607Z,1.52
2023-01-27T18:06:49.167Z,1.46
2023-01-27T18:08:55.999Z,1.52
2023-01-27T18:11:12.616Z,1.53
2023-01-27T18:13:38.363Z,1.61
2023-01-27T18:15:44.997Z,1.62
2023-01-27T18:18:03.496Z,1.70
2023-01-27T18:20:10.452Z,1.71
2023-01-27T18:22:18.452Z,1.79
2023-01-27T18:24:25.827Z,1.77
2023-01-27T18:26:33.654Z,1.69
2023-01-27T18:28:40.447Z,1.65
2023-01-27T18:30:49.684Z,1.68
2023-01-27T18:33:02.465Z,1.68
2023-01-27T18:35:30.408Z,1.73
2023-01-27T18:37:37.620Z,1.76
2023-01-27T18:39:44.307Z,1.80
2023-01-27T18:41:50.161Z,1.83
2023-01-27T18:43:55.119Z,1.83
2023-01-27T18:46:00.122Z,1.77
2023-01-27T18:48:05.079Z,1.67
2023-01-27T18:50:20.931Z,1.67
2023-01-27T18:52:26.268Z,1.64
2023-01-27T18:54:31.136Z,1.69
2023-01-27T18:56:36.081Z,1.65
2023-01-27T18:58:41.095Z,1.56
2023-01-27T19:00:49.370Z,1.52
2023-01-27T19:02:57.202Z,1.53
2023-01-27T19:05:02.039Z,1.59
2023-01-27T19:07:16.007Z,1.58
2023-01-27T19:09:21.059Z,1.61
2023-01-27T19:11:25.940Z,1.60
2023-01-27T19:13:34.432Z,1.59
2023-01-27T19:15:43.317Z,1.61
2023-01-27T19:17:48.591Z,1.57
2023-01-27T19:19:53.585Z,1.57
2023-01-27T19:21:58.540Z,1.58
2023-01-27T19:24:06.267Z,1.59
2023-01-27T19:26:18.106Z,1.56
2023-01-27T19:28:29.713Z,1.51
2023-01-27T19:30:37.785Z,1.59
2023-01-27T19:32:42.654Z,1.62
2023-01-27T19:34:47.471Z,1.56
2023-01-27T19:36:52.347Z,1.57
2023-01-27T19:39:02.418Z,1.61
2023-01-27T19:41:10.893Z,1.56
2023-01-27T19:43:17.404Z,1.59
2023-01-27T19:45:24.254Z,1.64
2023-01-27T19:47:29.240Z,1.66
2023-01-27T19:49:34.102Z,1.66
2023-01-27T19:51:38.935Z,1.68
2023-01-27T19:53:45.365Z,1.68
2023-01-27T19:55:51.412Z,1.61
2023-01-27T19:57:58.975Z,1.62
2023-01-27T20:00:05.401Z,1.68
2023-01-27T20:02:16.694Z,1.69
2023-01-27T20:04:21.548Z,1.71
2023-01-27T20:06:28.062Z,1.80
2023-01-27T20:08:32.897Z,1.80
2023-01-27T20:10:37.768Z,1.76
2023-01-27T20:12:42.604Z,1.80
2023-01-27T20:14:50.170Z,1.85
2023-01-27T20:16:55.228Z,1.86
2023-01-27T20:19:00.299Z,1.90
2023-01-27T20:21:05.156Z,1.85
2023-01-27T20:23:11.679Z,1.89
2023-01-27T20:25:17.859Z,1.91
2023-01-27T20:27:22.782Z,1.97
2023-01-27T20:29:27.998Z,1.96
2023-01-27T20:31:35.588Z,2.01
2023-01-27T20:33:40.515Z,2.04
2023-01-27T20:35:45.376Z,2.02
2023-01-27T20:37:51.959Z,1.95
2023-01-27T20:39:56.797Z,1.99
2023-01-27T20:42:01.677Z,2.04
2023-01-27T20:44:06.634Z,2.04
2023-01-27T20:46:13.189Z,2.04
2023-01-27T20:48:20.676Z,2.08
2023-01-27T20:50:26.342Z,2.15
2023-01-27T20:52:31.777Z,2.13
2023-01-27T20:54:37.074Z,2.16
2023-01-27T20:56:42.071Z,2.13
2023-01-27T20:58:47.383Z,2.06
2023-01-27T21:00:52.324Z,2.11
2023-01-27T21:02:57.379Z,2.13
2023-01-27T21:05:04.848Z,2.00
2023-01-27T21:07:09.768Z,1.98
2023-01-27T21:09:14.628Z,1.94
2023-01-27T21:11:21.460Z,1.98
2023-01-27T21:13:26.355Z,1.92
2023-01-27T21:15:31.269Z,1.98
2023-01-27T21:17:36.422Z,1.99
2023-01-27T21:19:41.053Z,1.92
2023-01-27T21:21:49.259Z,1.92
2023-01-27T21:23:54.361Z,1.98
2023-01-27T21:25:58.971Z,1.90
2023-01-27T21:28:03.894Z,1.82
2023-01-27T21:30:10.305Z,1.86
2023-01-27T21:32:15.200Z,1.98
2023-01-27T21:34:20.354Z,1.96
2023-01-27T21:36:24.981Z,2.01
2023-01-27T21:38:32.488Z,2.05
2023-01-27T21:40:40.225Z,1.95
2023-01-27T21:43:09.276Z,1.90
2023-01-27T21:45:13.581Z,1.94
2023-01-27T21:47:19.899Z,2.06
2023-01-27T21:49:25.027Z,2.10
2023-01-27T21:51:29.822Z,2.13
2023-01-27T21:53:37.283Z,2.21
2023-01-27T21:55:42.095Z,2.16
2023-01-27T21:57:48.597Z,2.26
2023-01-27T21:59:53.461Z,2.22
2023-01-27T22:01:58.288Z,2.19
2023-01-27T22:04:03.211Z,2.14
2023-01-27T22:06:08.928Z,2.21
2023-01-27T22:08:15.066Z,2.15
2023-01-27T22:10:25.889Z,2.14
2023-01-27T22:12:30.818Z,2.21
2023-01-27T22:14:35.870Z,2.15
2023-01-27T22:16:40.731Z,2.15
2023-01-27T22:18:45.812Z,2.15
2023-01-27T22:20:50.650Z,2.05
2023-01-27T22:22:55.530Z,2.13
2023-01-27T22:25:00.454Z,2.09
2023-01-27T22:27:07.929Z,2.09
2023-01-27T22:29:13.500Z,2.20
2023-01-27T22:31:18.409Z,2.20
2023-01-27T22:33:23.234Z,2.16
2023-01-27T22:35:28.051Z,2.14
2023-01-27T22:37:33.745Z,2.09
2023-01-27T22:39:38.624Z,2.16
2023-01-27T22:41:43.415Z,2.20
2023-01-27T22:43:52.171Z,2.27
2023-01-27T22:45:57.049Z,2.36
2023-01-27T22:48:01.944Z,2.38
2023-01-27T22:50:07.164Z,2.34
2023-01-27T22:52:11.771Z,2.44
2023-01-27T22:54:16.564Z,2.43
2023-01-27T22:56:21.448Z,2.48
2023-01-27T22:58:26.291Z,2.48
2023-01-27T23:00:33.784Z,2.58
2023-01-27T23:02:39.095Z,2.67
2023-01-27T23:04:43.987Z,2.67
2023-01-27T23:06:48.866Z,2.69
2023-01-27T23:08:53.701Z,2.75
2023-01-27T23:11:03.186Z,2.80
2023-01-27T23:13:08.018Z,2.79
2023-01-27T23:15:13.920Z,2.77
2023-01-27T23:17:21.560Z,2.77
2023-01-27T23:19:26.455Z,2.73
2023-01-27T23:21:32.379Z,2.60
2023-01-27T23:23:37.963Z,2.68
2023-01-27T23:25:45.683Z,2.55
2023-01-27T23:27:50.515Z,2.45
2023-01-27T23:29:55.517Z,2.56
2023-01-27T23:32:00.481Z,2.60
2023-01-27T23:34:08.579Z,2.60
2023-01-27T23:36:14.273Z,2.62
2023-01-27T23:38:31.750Z,2.55
2023-01-27T23:40:38.000Z,2.55
2023-01-27T23:42:42.730Z,2.60
2023-01-27T23:44:47.636Z,2.52
2023-01-27T23:46:52.514Z,2.56
2023-01-27T23:48:58.313Z,2.58
2023-01-27T23:51:11.624Z,2.59
2023-01-27T23:53:16.527Z,2.52
2023-01-27T23:55:21.368Z,2.53
2023-01-27T23:57:26.207Z,2.55
2023-01-27T23:59:31.228Z,2.59
